Grant Airport

CSX5 · Quebec, 加拿大

METAR的历史 CSX5 · Grant Airport

下面你可以看到过去几天的METARs。 选择年份以浏览从2007年开始的旧METAR。

2022年12月4日

时间 代码 天气 温度 能见度 天花板 METAR/SPECI
22:35
V
0 °C 9 mi 4.100 ft 190° 190° 9 kt SPECI CYHU 050335Z AUTO 19009KT 9SM -RA BKN041 OVC050 00/M05 A3002 RMK SLP168
22:35
V
0 °C 9 mi 4.100 ft 190° 190° 9 kt METAR CYHU 050335Z AUTO 19009KT 9SM -RA BKN041 OVC050 00/M05 A3002 RMK SLP168
22:00
V
0 °C 9 mi 4.800 ft 190° 190° 11 kt METAR CYHU 050300Z AUTO 19011KT 9SM BKN048 OVC055 00/M06 A3002 RMK SLP169
21:57
V
0 °C 9 mi 5.500 ft 190° 190° 9 kt METAR CYHU 050257Z AUTO 19009KT 9SM OVC055 00/M06 A3002 RMK SLP169
21:32
V
0 °C 9 mi 4.400 ft 190° 190° 8 kt METAR CYHU 050232Z AUTO 19008KT 9SM -RA BKN044 OVC055 00/M06 A3003 RMK SLP172
21:11
V
0 °C 9 mi 6.000 ft 190° 190° 10 kt METAR CYHU 050211Z AUTO 19010KT 9SM SCT046 OVC060 00/M06 A3003 RMK SLP173
21:00
V
0 °C 9 mi 6.000 ft 190° 190° 10 - 15 kt METAR CYHU 050200Z AUTO 19010G15KT 9SM -RA SCT044 OVC060 00/M06 A3003 RMK SLP174
20:59
V
0 °C 9 mi 6.000 ft 190° 190° 10 - 15 kt METAR CYHU 050159Z AUTO 19010G15KT 9SM -RA FEW044 OVC060 00/M06 A3003 RMK SLP174
20:00
V
0 °C 9 mi 4.200 ft 190° 190° 10 - 15 kt METAR CYHU 050100Z AUTO 19010G15KT 9SM OVC042 00/M06 A3003 RMK SLP174
19:00
V
-1 °C 9 mi 4.000 ft 190° 190° 8 kt METAR CYHU 050000Z AUTO 19008KT 9SM OVC040 M01/M06 A3004 RMK SLP175
18:00
V
-2 °C 9 mi 4.800 ft 130° 130° 5 kt METAR CYHU 042300Z AUTO 13005KT 9SM BKN048 BKN081 M02/M08 A3003 RMK SLP174
17:00
V
-2 °C 9 mi 4.400 ft 130° 130° 6 kt METAR CYHU 042200Z AUTO 13006KT 9SM BKN044 M02/M08 A3005 RMK SLP179
16:00
V
-2 °C 9 mi 6.600 ft 140° 140° 7 kt METAR CYHU 042100Z AUTO 14007KT 9SM BKN066 OVC081 M02/M09 A3007 RMK SLP186
15:00
V
-2 °C 9 mi 4.800 ft 170° 170° 7 kt METAR CYHU 042000Z AUTO 17007KT 9SM OVC048 M02/M10 A3009 RMK SLP194
14:00
V
-2 °C 9 mi 4.600 ft 210° 210° 7 kt METAR CYHU 041900Z AUTO 21007KT 9SM BKN046 OVC055 M02/M10 A3011 RMK SLP200
13:00
V
-2 °C 9 mi 5.000 ft 180° 180° 6 kt METAR CYHU 041800Z AUTO 18006KT 160V270 9SM OVC050 M02/M11 A3011 RMK SLP200
12:00
V
-2 °C 9 mi 7.600 ft 190° 190° 5 kt METAR CYHU 041700Z AUTO 19005KT 160V230 9SM OVC076 M02/M11 A3013 RMK SLP206
11:00
V
-2 °C 9 mi - Var Var 2 kt METAR CYHU 041600Z AUTO VRB02KT 9SM CLR M02/M11 A3014 RMK SLP210
10:00
V
-3 °C 9 mi - 310° 310° 9 kt METAR CYHU 041500Z AUTO 31009KT 250V330 9SM CLR M03/M11 A3019 RMK SLP226
09:00
V
-3 °C 9 mi - 300° 300° 8 kt METAR CYHU 041400Z AUTO 30008KT 9SM CLR M03/M10 A3020 RMK SLP229
08:00
V
-4 °C 9 mi - 290° 290° 6 kt METAR CYHU 041300Z AUTO 29006KT 9SM CLR M04/M11 A3018 RMK SLP224
07:00
V
-4 °C 9 mi 4.000 ft 280° 280° 9 kt METAR CYHU 041200Z AUTO 28009KT 9SM OVC040 M04/M11 A3018 RMK SLP223
06:00
V
-4 °C 9 mi 4.000 ft 280° 280° 8 kt METAR CYHU 041100Z AUTO 28008KT 9SM BKN040 M04/M10 A3017 RMK SLP219
05:00
V
-3 °C 9 mi - 300° 300° 9 - 19 kt METAR CYHU 041000Z AUTO 30009G19KT 9SM FEW160 M03/M11 A3014 RMK SLP211
04:00
V
-3 °C 9 mi 18.000 ft 300° 300° 12 - 21 kt SPECI CYHU 040900Z AUTO 30012G21KT 9SM FEW043 BKN180 BKN200 M03/M10 A3011 RMK SLP200
03:00
V
-2 °C 9 mi 4.500 ft 290° 290° 18 - 24 kt METAR CYHU 040800Z AUTO 29018G24KT 9SM BKN045 M02/M10 A3010 RMK SLP195
02:00
V
-1 °C 9 mi 4.300 ft 290° 290° 17 - 24 kt METAR CYHU 040700Z AUTO 29017G24KT 9SM OVC043 M01/M09 A3007 RMK SLP187
01:00
V
0 °C 9 mi 4.100 ft 290° 290° 19 - 30 kt METAR CYHU 040600Z AUTO 29019G30KT 9SM OVC041 M00/M07 A3003 RMK SLP173
00:00
V
0 °C 9 mi 3.500 ft 280° 280° 21 - 30 kt METAR CYHU 040500Z AUTO 28021G30KT 9SM OVC035 00/M06 A3001 RMK SLP164

2022年12月3日

时间 代码 天气 温度 能见度 天花板 METAR/SPECI
23:00
V
2 °C 9 mi 3.500 ft 260° 260° 19 - 29 kt METAR CYHU 040400Z AUTO 26019G29KT 9SM BKN035 OVC044 02/M05 A2999 RMK SLP157
22:00
V
3 °C 9 mi 6.000 ft 270° 270° 23 - 31 kt METAR CYHU 040300Z AUTO 27023G31KT 9SM FEW038 OVC060 03/M03 A2993 RMK SLP137
21:31
V
4 °C 9 mi 3.400 ft 270° 270° 21 - 35 kt METAR CYHU 040231Z AUTO 27021G35KT 9SM BKN034 OVC043 04/M01 A2991 RMK SLP131
21:28
V
4 °C 9 mi 3.400 ft 260° 260° 25 - 35 kt METAR CYHU 040228Z AUTO 26025G35KT 9SM -RA BKN034 OVC043 04/M01 A2991 RMK SLP132
21:12
V
5 °C 9 mi 3.300 ft 260° 260° 15 - 26 kt METAR CYHU 040212Z AUTO 26015G26KT 9SM -RA BKN033 BKN040 OVC055 05/M01 A2991 RMK PRESRR SLP130
21:08
V
5 °C 9 mi 3.300 ft 270° 270° 17 - 26 kt METAR CYHU 040208Z AUTO 27017G26KT 9SM BKN033 BKN040 OVC055 05/M01 A2990 RMK PRESRR SLP127
20:49
V
5 °C 9 mi 3.100 ft 250° 250° 20 - 29 kt SPECI CYHU 040149Z AUTO 25020G29KT 9SM -RA BKN031 OVC050 05/M00 A2989 RMK SLP123
20:00
V
5 °C 9 mi 3.300 ft 230° 230° 21 - 28 kt METAR CYHU 040100Z AUTO 23021G28KT 9SM BKN033 OVC048 05/00 A2986 RMK SLP116
19:00
V
5 °C 9 mi 3.600 ft 250° 250° 21 - 33 kt METAR CYHU 040000Z AUTO 25021G33KT 9SM BKN036 OVC044 05/01 A2979 RMK SLP092
18:07
V
6 °C 9 mi 3.100 ft 250° 250° 33 - 48 kt METAR CYHU 032307Z AUTO 25033G48KT 9SM BKN031 OVC071 06/01 A2973 RMK PRESRR SLP071
17:29
V
7 °C 9 mi 3.200 ft 250° 250° 39 - 50 kt METAR CYHU 032229Z AUTO 25039G50KT 9SM SCT024 BKN032 BKN043 OVC069 07/02 A2967 RMK SLP051
17:18
M
7 °C 9 mi 2.700 ft 250° 250° 29 - 46 kt METAR CYHU 032218Z AUTO 25029G46KT 9SM SCT023 BKN027 BKN034 OVC046 07/03 A2967 RMK PRESRR SLP049
17:06
V
7 °C 9 mi 3.500 ft 250° 250° 29 - 52 kt METAR CYHU 032206Z AUTO 25029G52KT 9SM -RA FEW020 SCT029 BKN035 BKN050 07/04 A2966 RMK PRESRR SLP046
17:05
M
7 °C 9 mi 2.900 ft 250° 250° 27 - 52 kt METAR CYHU 032205Z AUTO 25027G52KT 9SM FEW020 BKN029 BKN035 BKN047 07/04 A2966 RMK PRESRR SLP046
16:55
V
9 °C 9 mi 6.600 ft 240° 240° 40 - 52 kt METAR CYHU 032155Z AUTO 24040G52KT 9SM -RA SCT029 BKN066 09/05 A2963 RMK PRESRR SLP035
16:53
V
9 °C 9 mi - 230° 230° 30 - 42 kt SPECI CYHU 032153Z AUTO 23030G42KT 9SM -RA SCT029 SCT060 09/05 A2962 RMK PRESRR SLP032
16:00
V
9 °C 9 mi 3.300 ft 200° 200° 19 - 26 kt METAR CYHU 032100Z AUTO 20019G26KT 9SM BKN033 09/06 A2959 RMK SLP022
15:51
V
9 °C 9 mi 3.000 ft 190° 190° 19 - 27 kt METAR CYHU 032051Z AUTO 19019G27KT 9SM BKN030 OVC037 09/06 A2958 RMK SLP020
15:38
V
8 °C 9 mi 3.300 ft 180° 180° 18 - 25 kt METAR CYHU 032038Z AUTO 18018G25KT 9SM -RA BKN033 OVC040 08/06 A2957 RMK SLP017
15:31
V
8 °C 9 mi 3.300 ft 180° 180° 17 - 25 kt METAR CYHU 032031Z AUTO 18017G25KT 9SM OVC033 08/06 A2957 RMK SLP016
15:00
V
7 °C 8 mi 3.300 ft 170° 170° 15 - 25 kt METAR CYHU 032000Z AUTO 17015G25KT 8SM -RA BKN033 OVC055 07/06 A2958 RMK PCPN 0.8MM PAST HR SLP019
14:26
M
7 °C 9 mi 2.900 ft 170° 170° 17 - 25 kt METAR CYHU 031926Z AUTO 17017G25KT 9SM -RA OVC029 07/05 A2959 RMK ICE MISG SLP023
14:00
M
7 °C 9 mi 2.900 ft 180° 180° 13 - 25 kt METAR CYHU 031900Z AUTO 18013G25KT 9SM OVC029 07/05 A2960 RMK SLP028
13:40
M
7 °C 9 mi 2.900 ft 170° 170° 17 - 22 kt METAR CYHU 031840Z AUTO 17017G22KT 9SM OVC029 07/05 A2961 RMK SLP029
13:00
M
6 °C 9 mi 2.900 ft 180° 180° 15 - 21 kt METAR CYHU 031800Z AUTO 18015G21KT 9SM -RA OVC029 06/05 A2964 RMK SLP040
12:00
M
6 °C 7 mi 2.700 ft 180° 180° 15 - 24 kt METAR CYHU 031700Z AUTO 18015G24KT 7SM -RA OVC027 06/04 A2969 RMK PCPN 1.2MM PAST HR SLP056
11:46
M
6 °C 6 mi 2.900 ft 180° 180° 16 - 25 kt SPECI CYHU 031646Z AUTO 18016G25KT 6SM -RA BR OVC029 06/04 A2970 RMK PCPN 1.0MM PAST HR SLP060
11:00
M
5 °C 4 mi 2.900 ft 170° 170° 17 - 27 kt METAR CYHU 031600Z AUTO 17017G27KT 4SM -RA BR OVC029 05/04 A2974 RMK PRESFR PCPN 1.0MM PAST HR SLP073
10:33
M
5 °C 5 mi 2.900 ft 180° 180° 17 - 29 kt METAR CYHU 031533Z AUTO 18017G29KT 5SM -RA BR OVC029 05/04 A2976 RMK PCPN 0.5MM PAST HR SLP082
10:00
M
5 °C 9 mi 2.900 ft 170° 170° 18 - 26 kt METAR CYHU 031500Z AUTO 17018G26KT 9SM -RA OVC029 05/03 A2979 RMK PCPN 1.0MM PAST HR SLP091
09:42
M
5 °C 6 mi 2.900 ft 170° 170° 19 - 28 kt METAR CYHU 031442Z AUTO 17019G28KT 6SM -RA BR OVC029 05/03 A2980 RMK PCPN 0.8MM PAST HR SLP095
09:25
M
5 °C 5 mi 2.900 ft 170° 170° 16 - 28 kt METAR CYHU 031425Z AUTO 17016G28KT 5SM -RA BR OVC029 05/03 A2981 RMK SLP098
09:00
V
4 °C 6 mi 3.300 ft 170° 170° 19 - 31 kt METAR CYHU 031400Z AUTO 17019G31KT 6SM -RA BR OVC033 04/02 A2983 RMK PCPN 2.0MM PAST HR SLP103
08:00
V
5 °C 9 mi 6.600 ft 170° 170° 21 - 35 kt METAR CYHU 031300Z AUTO 17021G35KT 9SM -RA SCT050 OVC066 05/01 A2986 RMK PCPN 0.5MM PAST HR SLP113
07:09
V
6 °C 9 mi 4.500 ft 180° 180° 22 - 33 kt METAR CYHU 031209Z AUTO 18022G33KT 9SM -RA BKN045 OVC055 06/M01 A2987 RMK SLP118
06:00
V
5 °C 9 mi 4.700 ft 170° 170° 19 - 33 kt METAR CYHU 031100Z AUTO 17019G33KT 9SM BKN047 OVC055 05/M01 A2988 RMK SLP122
05:17
V
5 °C 9 mi 7.600 ft 170° 170° 23 - 32 kt METAR CYHU 031017Z AUTO 17023G32KT 9SM -RA SCT049 BKN076 OVC094 05/M02 A2991 RMK SLP130
05:10
V
5 °C 9 mi 7.600 ft 170° 170° 21 - 32 kt METAR CYHU 031010Z AUTO 17021G32KT 9SM BKN076 OVC090 05/M02 A2990 RMK SLP129
05:00
V
5 °C 9 mi 9.200 ft 170° 170° 18 - 26 kt METAR CYHU 031000Z AUTO 17018G26KT 9SM -RA SCT076 OVC092 05/M02 A2991 RMK SLP131
04:56
V
5 °C 9 mi 9.400 ft 170° 170° 15 - 26 kt METAR CYHU 030956Z AUTO 17015G26KT 9SM -RA SCT076 OVC094 05/M02 A2991 RMK PRESFR SLP132
04:00
V
5 °C 9 mi 14.000 ft 170° 170° 17 - 28 kt METAR CYHU 030900Z AUTO 17017G28KT 9SM BKN140 BKN200 05/M03 A2995 RMK SLP144
03:00
V
4 °C 9 mi 9.600 ft 170° 170° 17 - 29 kt METAR CYHU 030800Z AUTO 17017G29KT 9SM BKN096 OVC140 04/M03 A2999 RMK SLP158
02:00
V
4 °C 9 mi 10.000 ft 180° 180° 14 - 26 kt METAR CYHU 030700Z AUTO 18014G26KT 9SM OVC100 04/M03 A3004 RMK SLP175
01:00
V
4 °C 9 mi 10.000 ft 180° 180° 15 - 24 kt METAR CYHU 030600Z AUTO 18015G24KT 9SM SCT076 OVC100 04/M03 A3005 RMK SLP180
00:16
V
4 °C 9 mi 9.800 ft 170° 170° 17 - 26 kt METAR CYHU 030516Z AUTO 17017G26KT 9SM FEW081 OVC098 04/M02 A3007 RMK SLP187
00:00
V
4 °C 9 mi 7.600 ft 160° 160° 22 - 30 kt METAR CYHU 030500Z AUTO 16022G30KT 9SM -RA BKN076 OVC093 04/M02 A3006 RMK SLP182

2022年12月2日

时间 代码 天气 温度 能见度 天花板 METAR/SPECI
23:46
V
4 °C 9 mi 7.600 ft 160° 160° 18 - 30 kt METAR CYHU 030446Z AUTO 16018G30KT 9SM -RA BKN076 OVC099 04/M03 A3007 RMK PRESFR SLP187
23:00
V
4 °C 9 mi 11.000 ft 170° 170° 18 - 33 kt METAR CYHU 030400Z AUTO 17018G33KT 9SM OVC110 04/M03 A3013 RMK SLP207
22:00
V
4 °C 9 mi 9.100 ft 170° 170° 15 - 23 kt METAR CYHU 030300Z AUTO 17015G23KT 9SM OVC091 04/M03 A3015 RMK SLP214
21:00
V
4 °C 9 mi 10.000 ft 170° 170° 16 - 23 kt METAR CYHU 030200Z AUTO 17016G23KT 9SM OVC100 04/M03 A3018 RMK SLP224
20:00
V
4 °C 9 mi 12.000 ft 170° 170° 16 - 22 kt METAR CYHU 030100Z AUTO 17016G22KT 9SM FEW091 OVC120 04/M03 A3021 RMK SLP233
19:00
V
3 °C 9 mi 12.000 ft 160° 160° 14 - 20 kt METAR CYHU 030000Z AUTO 16014G20KT 9SM SCT100 OVC120 03/M03 A3023 RMK SLP241
18:00
V
3 °C 9 mi 12.000 ft 150° 150° 13 - 18 kt METAR CYHU 022300Z AUTO 15013G18KT 9SM SCT096 OVC120 03/M03 A3026 RMK SLP251
17:00
V
3 °C 9 mi 9.100 ft 160° 160° 11 - 16 kt METAR CYHU 022200Z AUTO 16011G16KT 9SM BKN091 OVC120 03/M03 A3029 RMK SLP262
16:00
V
3 °C 9 mi 12.000 ft 160° 160° 9 - 16 kt METAR CYHU 022100Z AUTO 16009G16KT 9SM OVC120 03/M03 A3031 RMK SLP267
15:00
V
3 °C 9 mi 12.000 ft 160° 160° 10 - 17 kt METAR CYHU 022000Z AUTO 16010G17KT 9SM SCT100 OVC120 03/M02 A3031 RMK SLP267
14:00
V
3 °C 9 mi 12.000 ft 170° 170° 7 kt METAR CYHU 021900Z AUTO 17007KT 9SM BKN120 03/M03 A3034 RMK SLP276
13:00
V
3 °C 9 mi 12.000 ft 170° 170° 8 kt METAR CYHU 021800Z AUTO 17008KT 9SM SCT038 BKN120 03/M02 A3036 RMK SLP284
12:00
V
2 °C 9 mi 3.800 ft 160° 160° 10 - 15 kt METAR CYHU 021700Z AUTO 16010G15KT 9SM BKN038 02/M03 A3037 RMK SLP289
11:00
V
1 °C 9 mi 4.200 ft 160° 160° 7 kt METAR CYHU 021600Z AUTO 16007KT 9SM OVC042 01/M04 A3041 RMK SLP301
10:00
V
0 °C 9 mi 4.400 ft 160° 160° 8 kt METAR CYHU 021500Z AUTO 16008KT 9SM BKN044 00/M04 A3042 RMK SLP306
09:00
V
-2 °C 9 mi 4.500 ft 160° 160° 5 kt METAR CYHU 021400Z AUTO 16005KT 9SM BKN045 OVC110 M02/M05 A3043 RMK SLP307
08:00
V
-4 °C 9 mi - 160° 160° 5 kt METAR CYHU 021300Z AUTO 16005KT 9SM CLR M04/M07 A3043 RMK SLP309
07:00
V
-4 °C 9 mi 4.700 ft 180° 180° 2 kt METAR CYHU 021200Z AUTO 18002KT 9SM OVC047 M04/M07 A3042 RMK SLP306
06:00
V
-4 °C 9 mi - 210° 210° 6 kt METAR CYHU 021100Z AUTO 21006KT 9SM CLR M04/M07 A3043 RMK PRESRR SLP307
05:00
V
-5 °C 9 mi - 210° 210° 4 kt METAR CYHU 021000Z AUTO 21004KT 9SM FEW150 M05/M08 A3040 RMK SLP297

我们和第三方通过cookies跟踪您在我们网站上的互联网行为。如果你继续,我们认为你同意我们的饼干政策